Time;durP1;ratioP1;P1;durP2;ratioP2;P2;SDS_P1;SDS_P2;PMS_P1;PMS_P2;Temp;Humidity;BMP_temperature;BMP_pressure;BME280_temperature;BME280_humidity;BME280_pressure;Samples;Min_cycle;Max_cycle;Signal;HPM_P1;HPM_P2
2022/10/31 00:00:06;;;;;;;4.57;4.17;;;;;;;14.24;68.01;95331.97;5073697;28;20484;-76
2022/10/31 00:02:33;;;;;;;5.23;4.20;;;;;;;14.20;67.75;95318.22;5073909;28;20446;-77
2022/10/31 00:05:00;;;;;;;5.77;4.27;;;;;;;14.18;67.66;95314.88;5073800;28;20437;-76
2022/10/31 00:07:26;;;;;;;6.93;4.53;;;;;;;14.19;67.41;95311.28;5073711;28;20448;-77
2022/10/31 00:09:55;;;;;;;6.70;3.90;;;;;;;14.17;67.44;95307.94;5073869;28;20453;-76
2022/10/31 00:12:21;;;;;;;4.23;3.83;;;;;;;14.11;67.53;95316.41;5073563;28;20463;-76
2022/10/31 00:14:48;;;;;;;10.50;4.40;;;;;;;14.09;67.85;95326.28;5073596;28;20452;-76
2022/10/31 00:17:15;;;;;;;11.03;3.87;;;;;;;14.07;67.64;95325.56;5073633;28;20437;-76
2022/10/31 00:19:42;;;;;;;5.83;4.10;;;;;;;14.08;68.08;95319.31;5073458;28;20558;-76
2022/10/31 00:22:08;;;;;;;6.40;3.90;;;;;;;14.09;68.12;95321.00;5073693;28;20444;-76
2022/10/31 00:24:35;;;;;;;5.50;5.00;;;;;;;14.11;67.87;95323.50;5073903;28;20444;-76
2022/10/31 00:27:03;;;;;;;6.53;3.80;;;;;;;14.06;67.80;95326.56;5073349;28;20497;-77
2022/10/31 00:29:30;;;;;;;8.30;4.73;;;;;;;14.05;67.95;95327.53;5073538;28;20462;-76
2022/10/31 00:31:57;;;;;;;5.47;3.97;;;;;;;14.02;68.01;95319.91;5072438;28;20449;-76
2022/10/31 00:34:24;;;;;;;6.77;4.00;;;;;;;14.03;67.96;95321.56;5037819;28;20465;-76
2022/10/31 00:36:50;;;;;;;5.33;4.20;;;;;;;13.99;67.77;95320.19;5073737;28;20514;-76
2022/10/31 00:39:17;;;;;;;9.07;4.50;;;;;;;13.99;68.22;95319.34;5072746;28;20484;-77
2022/10/31 00:41:44;;;;;;;6.50;4.40;;;;;;;13.97;68.11;95311.56;5073457;28;20497;-76
2022/10/31 00:44:12;;;;;;;4.43;3.67;;;;;;;13.97;68.15;95316.03;5037547;28;20441;-76
2022/10/31 00:46:39;;;;;;;8.83;4.13;;;;;;;13.97;67.81;95316.84;5073024;28;20445;-77
2022/10/31 00:49:05;;;;;;;7.53;4.57;;;;;;;13.90;68.13;95318.38;5072803;28;20453;-76
2022/10/31 00:51:32;;;;;;;5.77;3.90;;;;;;;13.93;67.89;95320.75;5072635;28;20476;-76
2022/10/31 00:53:59;;;;;;;5.47;3.80;;;;;;;13.90;68.21;95321.84;5072831;28;20456;-77
2022/10/31 00:56:26;;;;;;;5.50;3.90;;;;;;;13.92;67.82;95319.09;5072875;28;20433;-77
2022/10/31 00:58:52;;;;;;;5.63;3.87;;;;;;;13.92;68.03;95313.81;5072834;28;20534;-76
2022/10/31 01:01:20;;;;;;;12.93;4.63;;;;;;;13.95;68.06;95316.16;5072828;28;20546;-77
2022/10/31 01:03:47;;;;;;;5.80;3.80;;;;;;;13.92;67.78;95313.81;5072420;28;20505;-76
2022/10/31 01:06:15;;;;;;;7.30;5.57;;;;;;;13.92;67.64;95319.09;5072456;28;20452;-76
2022/10/31 01:08:42;;;;;;;6.70;4.00;;;;;;;13.89;67.65;95314.09;5053850;28;20957;-76
2022/10/31 01:11:13;;;;;;;7.33;3.83;;;;;;;13.91;68.33;95322.69;5072740;28;20445;-76
2022/10/31 01:13:40;;;;;;;4.00;3.40;;;;;;;13.87;68.48;95322.09;5072456;28;20961;-76
2022/10/31 01:16:09;;;;;;;5.47;4.13;;;;;;;13.89;68.24;95320.19;5072544;28;20452;-76
2022/10/31 01:18:37;;;;;;;4.83;3.40;;;;;;;13.93;68.43;95321.56;5072118;28;20500;-76
2022/10/31 01:21:06;;;;;;;4.50;4.03;;;;;;;13.91;68.35;95333.25;5072631;28;20490;-76
2022/10/31 01:23:33;;;;;;;7.20;4.20;;;;;;;13.84;68.33;95325.03;5072188;28;20923;-76
2022/10/31 01:26:05;;;;;;;7.63;4.90;;;;;;;13.84;68.48;95337.38;5072331;28;20832;-77
2022/10/31 01:28:32;;;;;;;6.93;3.97;;;;;;;13.79;68.77;95334.34;5072291;28;20448;-76
2022/10/31 01:31:01;;;;;;;4.53;4.13;;;;;;;13.77;69.14;95334.47;5072196;28;20798;-77
2022/10/31 01:33:28;;;;;;;5.57;4.07;;;;;;;13.77;69.17;95338.91;5072022;28;20449;-77
2022/10/31 01:35:56;;;;;;;5.60;4.23;;;;;;;13.66;69.27;95333.78;5053232;28;20456;-76
2022/10/31 01:38:23;;;;;;;6.47;4.17;;;;;;;13.66;69.76;95332.00;5072264;28;20487;-76
2022/10/31 01:40:50;;;;;;;7.00;4.57;;;;;;;13.59;69.72;95323.81;5053268;28;20783;-76
2022/10/31 01:43:17;;;;;;;4.30;3.93;;;;;;;13.64;69.69;95337.41;5071552;28;21001;-76
2022/10/31 01:45:49;;;;;;;5.07;4.57;;;;;;;13.70;69.70;95345.72;5053330;28;20453;-76
2022/10/31 01:48:20;;;;;;;5.37;4.40;;;;;;;13.67;69.88;95346.84;5036520;28;20806;-76
2022/10/31 01:50:50;;;;;;;5.73;3.70;;;;;;;13.67;70.16;95340.72;5053349;28;20463;-76
2022/10/31 01:53:19;;;;;;;6.60;3.90;;;;;;;13.72;69.76;95341.97;5071795;28;20483;-76
2022/10/31 01:55:48;;;;;;;5.97;4.27;;;;;;;13.70;69.78;95346.56;5071876;28;20812;-77
2022/10/31 01:58:18;;;;;;;5.17;4.67;;;;;;;13.71;69.73;95339.47;5071872;28;20525;-76
2022/10/31 02:00:50;;;;;;;7.10;4.40;;;;;;;13.62;69.94;95349.91;5071689;28;20484;-77
2022/10/31 02:03:19;;;;;;;6.93;4.50;;;;;;;13.53;71.20;95353.34;5072034;28;20490;-76
2022/10/31 02:05:46;;;;;;;5.13;3.93;;;;;;;13.58;71.50;95350.28;5071957;28;20450;-76
2022/10/31 02:08:17;;;;;;;8.73;4.80;;;;;;;13.58;71.21;95351.09;5071683;28;20437;-77
2022/10/31 02:10:46;;;;;;;5.77;4.03;;;;;;;13.61;71.19;95348.22;5071980;28;20437;-76
2022/10/31 02:13:13;;;;;;;4.20;3.80;;;;;;;13.63;71.16;95335.75;5071490;28;20449;-76
2022/10/31 02:15:42;;;;;;;6.40;4.50;;;;;;;13.66;70.92;95344.34;5071697;28;20443;-76
2022/10/31 02:18:10;;;;;;;7.40;4.00;;;;;;;13.66;71.00;95339.06;5071724;28;20453;-76
2022/10/31 02:20:43;;;;;;;6.47;4.20;;;;;;;13.64;70.82;95342.69;5071769;28;20488;-76
2022/10/31 02:23:31;;;;;;;9.20;4.30;;;;;;;13.62;70.49;95347.25;5053258;28;20449;-77
2022/10/31 02:26:23;;;;;;;4.87;3.97;;;;;;;13.65;70.08;95343.50;5071469;28;20844;-76
2022/10/31 02:29:07;;;;;;;6.80;3.53;;;;;;;13.62;70.30;95333.25;5071527;28;20503;-76
2022/10/31 02:31:43;;;;;;;5.23;4.10;;;;;;;13.68;69.99;95339.75;5071729;28;20519;-76
2022/10/31 02:34:20;;;;;;;4.30;3.90;;;;;;;13.71;69.72;95345.59;5071868;28;20453;-76
2022/10/31 02:36:56;;;;;;;4.40;3.63;;;;;;;13.80;69.96;95352.66;5071653;28;20444;-77
2022/10/31 02:39:27;;;;;;;5.87;4.30;;;;;;;13.85;69.15;95352.25;5035968;28;20483;-76
2022/10/31 02:42:05;;;;;;;6.30;4.57;;;;;;;13.86;69.49;95356.53;5071454;28;20527;-77
2022/10/31 02:44:38;;;;;;;6.47;4.27;;;;;;;13.91;69.22;95364.91;5071248;28;20955;-76
2022/10/31 02:47:09;;;;;;;5.27;4.13;;;;;;;13.93;69.10;95353.25;5071296;28;20979;-76
2022/10/31 02:49:41;;;;;;;5.20;4.03;;;;;;;13.93;68.87;95358.50;5071610;28;20484;-77
2022/10/31 02:52:18;;;;;;;6.90;4.90;;;;;;;13.89;68.76;95364.22;5071316;28;20480;-76
2022/10/31 02:54:46;;;;;;;5.83;4.30;;;;;;;13.91;69.08;95362.25;5071581;28;20448;-77
2022/10/31 02:57:14;;;;;;;5.10;3.70;;;;;;;13.90;68.98;95361.44;5074581;28;20444;-76
2022/10/31 02:59:50;;;;;;;5.10;3.50;;;;;;;13.93;68.80;95366.44;5074999;28;20561;-76
2022/10/31 03:02:38;;;;;;;4.93;4.53;;;;;;;13.89;70.06;95372.13;5075070;28;20459;-76
2022/10/31 03:05:15;;;;;;;7.00;4.03;;;;;;;13.66;71.08;95376.00;5074965;28;20445;-76
2022/10/31 03:07:52;;;;;;;8.83;4.93;;;;;;;13.71;70.68;95373.78;5074890;28;20437;-76
2022/10/31 03:10:32;;;;;;;8.03;4.50;;;;;;;13.72;70.76;95370.16;5074872;28;20506;-76
2022/10/31 03:13:07;;;;;;;7.97;4.30;;;;;;;13.72;71.24;95364.88;5075056;28;20570;-77
2022/10/31 03:15:37;;;;;;;5.50;4.07;;;;;;;13.74;70.18;95357.66;5074422;28;20447;-76
2022/10/31 03:18:09;;;;;;;10.60;4.73;;;;;;;13.72;70.12;95355.16;5055709;28;20440;-76
2022/10/31 03:20:41;;;;;;;5.40;4.10;;;;;;;13.71;70.22;95366.69;5075030;28;20853;-76
2022/10/31 03:23:14;;;;;;;5.17;4.07;;;;;;;13.71;70.23;95366.69;5074588;28;20441;-76
2022/10/31 03:25:43;;;;;;;9.73;4.30;;;;;;;13.71;69.93;95365.84;5074338;28;20447;-76
2022/10/31 03:28:13;;;;;;;8.20;5.03;;;;;;;13.68;70.45;95371.41;5074433;28;20455;-76
2022/10/31 03:30:43;;;;;;;7.60;5.13;;;;;;;13.63;70.69;95375.28;5038804;28;20441;-76
2022/10/31 03:33:16;;;;;;;5.10;4.43;;;;;;;13.63;70.75;95377.94;5074246;28;20443;-76
2022/10/31 03:35:47;;;;;;;4.83;4.43;;;;;;;13.64;70.53;95378.75;5038647;28;20990;-76
2022/10/31 03:38:15;;;;;;;6.80;5.17;;;;;;;13.66;71.09;95379.47;5074259;28;20437;-77
2022/10/31 03:40:46;;;;;;;13.03;5.10;;;;;;;13.69;70.78;95381.81;5074032;28;21004;-76
2022/10/31 03:43:17;;;;;;;6.37;4.90;;;;;;;13.71;70.76;95381.69;5074378;28;20469;-76
2022/10/31 03:45:47;;;;;;;8.77;5.47;;;;;;;13.74;70.64;95389.31;5074013;28;20773;-77
2022/10/31 03:48:18;;;;;;;7.47;6.37;;;;;;;13.72;70.64;95386.81;5074078;28;20445;-76
2022/10/31 03:50:53;;;;;;;6.33;5.37;;;;;;;13.69;70.56;95380.97;5074110;28;20437;-77
2022/10/31 03:53:26;;;;;;;5.80;5.17;;;;;;;13.74;70.92;95387.50;5074318;28;20476;-76
2022/10/31 03:56:00;;;;;;;6.87;5.20;;;;;;;13.79;71.03;95387.09;5073794;28;20479;-77
2022/10/31 03:58:37;;;;;;;9.40;4.90;;;;;;;13.78;70.75;95396.81;5074160;28;20501;-76
2022/10/31 04:01:06;;;;;;;8.70;4.93;;;;;;;13.82;70.72;95400.00;5073591;28;20488;-76
2022/10/31 04:03:38;;;;;;;6.90;5.20;;;;;;;13.86;70.79;95404.03;5073752;28;20444;-76
2022/10/31 04:06:08;;;;;;;6.50;5.67;;;;;;;13.89;70.24;95401.16;5073684;28;20459;-77
2022/10/31 04:08:40;;;;;;;7.77;5.00;;;;;;;13.90;70.71;95406.28;5071955;28;20441;-76
2022/10/31 04:11:12;;;;;;;5.70;5.07;;;;;;;13.92;70.66;95403.50;5073753;28;20502;-77
2022/10/31 04:13:40;;;;;;;7.13;4.63;;;;;;;13.86;70.59;95409.31;5055448;28;20452;-76
2022/10/31 04:16:09;;;;;;;9.17;5.17;;;;;;;13.86;70.67;95409.31;5073566;28;20865;-77
2022/10/31 04:18:37;;;;;;;5.90;5.30;;;;;;;13.89;70.73;95406.44;5073484;28;20449;-76
2022/10/31 04:21:06;;;;;;;7.07;5.30;;;;;;;13.86;70.61;95412.78;5073483;28;20491;-77
2022/10/31 04:23:34;;;;;;;7.00;5.17;;;;;;;13.85;70.98;95413.75;5073449;28;20494;-76
2022/10/31 04:26:01;;;;;;;8.70;5.57;;;;;;;13.86;70.98;95411.94;5073440;28;20448;-76
2022/10/31 04:28:28;;;;;;;6.73;4.90;;;;;;;13.87;71.11;95410.97;5073296;28;20856;-76
2022/10/31 04:30:55;;;;;;;10.97;5.63;;;;;;;13.88;71.02;95408.22;5073199;28;20959;-76
2022/10/31 04:33:21;;;;;;;6.70;4.57;;;;;;;13.88;71.25;95408.22;5073062;28;20544;-77
2022/10/31 04:35:50;;;;;;;10.00;6.10;;;;;;;13.87;71.57;95405.69;5073289;28;20451;-77
2022/10/31 04:38:17;;;;;;;8.57;5.27;;;;;;;13.88;71.39;95418.78;5072854;28;20449;-77
2022/10/31 04:40:43;;;;;;;7.90;6.03;;;;;;;13.88;71.23;95420.59;5073335;28;20484;-76
2022/10/31 04:43:10;;;;;;;9.13;5.63;;;;;;;13.90;71.28;95418.63;5072813;28;20470;-76
2022/10/31 04:45:38;;;;;;;6.00;5.40;;;;;;;13.85;71.20;95420.84;5072887;28;20481;-76
2022/10/31 04:48:05;;;;;;;11.10;5.17;;;;;;;13.85;71.83;95415.56;5072767;28;20943;-77
2022/10/31 04:50:32;;;;;;;8.83;5.10;;;;;;;13.89;71.51;95427.53;5073043;28;20566;-76
2022/10/31 04:53:00;;;;;;;5.97;4.47;;;;;;;13.90;71.61;95427.38;5072679;28;20978;-77
2022/10/31 04:55:27;;;;;;;10.60;5.73;;;;;;;13.92;71.44;95432.53;5072953;28;20506;-76
2022/10/31 04:57:53;;;;;;;8.97;5.03;;;;;;;13.92;70.96;95436.00;5072541;28;20461;-76
2022/10/31 05:00:22;;;;;;;7.40;4.60;;;;;;;13.91;71.32;95429.06;5072415;28;20487;-76
2022/10/31 05:02:50;;;;;;;14.03;5.63;;;;;;;13.94;71.33;95427.94;5072577;28;20557;-75
2022/10/31 05:05:19;;;;;;;10.67;5.37;;;;;;;13.94;71.38;95430.59;5072608;28;20445;-75
2022/10/31 05:07:47;;;;;;;8.50;5.57;;;;;;;13.92;71.39;95424.63;5072560;28;20928;-75
2022/10/31 05:10:18;;;;;;;19.97;6.03;;;;;;;13.92;71.52;95424.63;5072164;28;20510;-76
2022/10/31 05:12:48;;;;;;;6.73;5.07;;;;;;;13.88;71.74;95426.69;5037103;28;20801;-76
2022/10/31 05:15:16;;;;;;;6.63;5.03;;;;;;;13.89;72.13;95425.72;5072420;28;20526;-76
2022/10/31 05:17:43;;;;;;;12.87;5.80;;;;;;;14.12;72.04;95431.56;5072000;28;20487;-75
2022/10/31 05:20:11;;;;;;;9.83;6.53;;;;;;;14.59;69.84;95429.06;5072203;28;20491;-76
2022/10/31 05:22:38;;;;;;;8.53;5.63;;;;;;;15.28;68.29;95447.25;5072011;28;20846;-76
2022/10/31 05:25:05;;;;;;;6.60;5.33;;;;;;;15.78;66.23;95445.09;5036580;28;20437;-76
2022/10/31 05:27:33;;;;;;;14.60;5.73;;;;;;;16.05;64.44;95441.56;5072353;28;20861;-76
2022/10/31 05:30:00;;;;;;;16.40;7.67;;;;;;;15.99;64.05;95449.28;5072008;28;20458;-76
2022/10/31 05:32:27;;;;;;;9.60;7.53;;;;;;;15.90;64.47;95455.47;5072192;28;20446;-76
2022/10/31 05:34:53;;;;;;;14.67;8.00;;;;;;;15.44;64.78;95454.56;5071998;28;20470;-76
2022/10/31 05:37:20;;;;;;;11.90;6.77;;;;;;;15.14;66.08;95460.94;5071707;28;20457;-76
2022/10/31 05:39:47;;;;;;;14.07;7.90;;;;;;;14.17;69.54;95461.03;5072172;28;20459;-75
2022/10/31 05:42:14;;;;;;;16.37;7.37;;;;;;;14.21;69.88;95458.94;5071895;28;20481;-76
2022/10/31 05:44:42;;;;;;;21.70;9.00;;;;;;;14.23;69.24;95460.47;5072085;28;20448;-76
2022/10/31 05:47:08;;;;;;;22.53;9.40;;;;;;;13.37;72.53;95476.09;5072003;28;20452;-76
2022/10/31 05:49:35;;;;;;;18.27;9.33;;;;;;;13.54;71.99;95467.53;5071899;28;20867;-76
2022/10/31 05:52:02;;;;;;;23.97;8.70;;;;;;;13.67;72.04;95480.50;5071356;28;21028;-76
2022/10/31 05:54:29;;;;;;;24.17;8.63;;;;;;;13.73;71.76;95472.06;5071528;28;20449;-76
2022/10/31 05:56:55;;;;;;;15.80;9.30;;;;;;;13.78;72.58;95475.13;5072228;28;20453;-76
2022/10/31 05:59:22;;;;;;;17.20;10.30;;;;;;;13.82;72.19;95481.78;5071943;28;20445;-76
2022/10/31 06:01:50;;;;;;;16.63;9.33;;;;;;;13.82;71.82;95479.97;5071634;28;20484;-76
2022/10/31 06:04:17;;;;;;;14.30;9.37;;;;;;;13.77;71.45;95474.28;5071740;28;20449;-76
2022/10/31 06:06:44;;;;;;;21.00;12.00;;;;;;;13.81;72.30;95488.03;5071929;28;20452;-76
2022/10/31 06:09:10;;;;;;;17.50;9.70;;;;;;;13.88;72.11;95487.38;5071673;28;20445;-75
2022/10/31 06:11:37;;;;;;;22.60;10.00;;;;;;;14.03;72.21;95489.59;5071579;28;20448;-76
2022/10/31 06:14:04;;;;;;;11.30;9.37;;;;;;;14.45;71.17;95495.50;5071775;28;20438;-76
2022/10/31 06:16:31;;;;;;;14.43;8.23;;;;;;;15.12;69.88;95490.16;5071652;28;20920;-76
2022/10/31 06:19:00;;;;;;;23.47;8.37;;;;;;;15.79;67.61;95494.38;5071398;28;20839;-76
2022/10/31 06:21:26;;;;;;;14.40;7.83;;;;;;;16.35;65.75;95505.75;5071912;28;20484;-76
2022/10/31 06:23:53;;;;;;;21.23;6.60;;;;;;;16.86;63.52;95498.97;5071389;28;20830;-76
2022/10/31 06:26:20;;;;;;;14.80;6.97;;;;;;;17.25;61.34;95507.38;5052614;28;20813;-76
2022/10/31 06:28:47;;;;;;;12.23;6.23;;;;;;;17.54;60.06;95515.84;5036072;28;20452;-76
2022/10/31 06:31:13;;;;;;;12.33;6.07;;;;;;;17.75;59.63;95515.50;5075266;28;20467;-76
2022/10/31 06:33:42;;;;;;;9.27;5.77;;;;;;;17.98;58.99;95509.63;5075646;28;20443;-76
2022/10/31 06:36:11;;;;;;;10.50;6.17;;;;;;;18.16;58.33;95515.66;5040158;28;20484;-76
2022/10/31 06:38:38;;;;;;;8.20;6.20;;;;;;;18.37;57.53;95513.41;5075576;28;20958;-76
2022/10/31 06:41:06;;;;;;;17.57;6.70;;;;;;;18.45;56.77;95515.22;5075351;28;20487;-76
2022/10/31 06:43:33;;;;;;;12.33;7.77;;;;;;;18.26;56.81;95524.34;5075090;28;20444;-76
2022/10/31 06:46:05;;;;;;;14.50;6.80;;;;;;;18.18;57.15;95514.50;5075933;28;20444;-76
2022/10/31 06:48:35;;;;;;;12.50;6.90;;;;;;;18.37;57.19;95520.53;5075231;28;20445;-76
2022/10/31 06:51:08;;;;;;;14.40;8.60;;;;;;;18.22;56.47;95529.16;5075319;28;20574;-76
2022/10/31 06:53:36;;;;;;;16.43;10.67;;;;;;;18.05;57.54;95523.94;5075194;28;20513;-76
2022/10/31 06:56:03;;;;;;;18.53;10.67;;;;;;;18.09;57.85;95520.78;5056626;28;20444;-76
2022/10/31 06:58:30;;;;;;;21.37;11.80;;;;;;;18.16;57.57;95526.28;5074713;28;20448;-76
2022/10/31 07:01:00;;;;;;;22.60;12.10;;;;;;;18.19;57.41;95523.28;5075317;28;20511;-76
2022/10/31 07:03:27;;;;;;;18.07;11.33;;;;;;;18.18;57.27;95521.63;5023098;28;20436;-76
2022/10/31 07:05:56;;;;;;;20.83;11.60;;;;;;;18.15;57.81;95516.66;5074915;28;20437;-76
2022/10/31 07:08:23;;;;;;;42.87;12.37;;;;;;;18.12;57.81;95522.28;5074990;28;20436;-76
2022/10/31 07:10:55;;;;;;;30.07;11.83;;;;;;;18.03;57.50;95512.63;5074804;28;20459;-76
2022/10/31 07:13:25;;;;;;;22.73;10.70;;;;;;;17.99;57.76;95511.28;5074476;28;20452;-77
2022/10/31 07:15:53;;;;;;;23.00;10.60;;;;;;;17.90;58.79;95516.56;5075049;28;20452;-76
2022/10/31 07:18:20;;;;;;;17.57;11.67;;;;;;;17.88;59.30;95509.75;5074977;28;21169;-76
2022/10/31 07:20:47;;;;;;;25.43;10.33;;;;;;;17.70;59.31;95515.16;5074625;28;21015;-76
2022/10/31 07:23:14;;;;;;;20.50;10.40;;;;;;;17.73;59.54;95509.53;5074703;28;20444;-76
2022/10/31 07:25:41;;;;;;;22.10;10.20;;;;;;;17.71;59.70;95510.66;5074515;28;20475;-76
2022/10/31 07:28:10;;;;;;;19.33;10.53;;;;;;;17.73;60.11;95504.22;5075046;28;20862;-76
2022/10/31 07:30:37;;;;;;;16.93;9.70;;;;;;;17.75;60.69;95502.22;5074432;28;20447;-76
2022/10/31 07:33:04;;;;;;;19.80;11.17;;;;;;;17.75;60.24;95496.09;5074345;28;20445;-76
2022/10/31 07:35:32;;;;;;;20.50;10.70;;;;;;;17.68;60.74;95495.91;5074463;28;20449;-76
2022/10/31 07:38:08;;;;;;;32.17;11.60;;;;;;;17.75;60.98;95496.09;5074391;28;20448;-76
2022/10/31 07:40:35;;;;;;;20.73;11.20;;;;;;;17.45;61.24;95498.22;5074261;28;20934;-76
2022/10/31 07:43:01;;;;;;;16.23;10.63;;;;;;;17.53;61.50;95503.56;5074182;28;20452;-76
2022/10/31 07:45:30;;;;;;;34.30;10.70;;;;;;;17.61;60.92;95503.59;5074171;28;20453;-76
2022/10/31 07:47:59;;;;;;;22.40;10.93;;;;;;;17.54;61.63;95507.06;5074659;28;20437;-76
2022/10/31 07:50:28;;;;;;;19.13;11.53;;;;;;;17.55;61.43;95500.75;5074131;28;20437;-76
2022/10/31 07:53:03;;;;;;;19.80;10.53;;;;;;;17.44;61.59;95501.88;5054690;28;20460;-76
2022/10/31 07:55:30;;;;;;;18.27;10.07;;;;;;;17.26;62.42;95507.22;5054930;28;20519;-76
2022/10/31 07:58:01;;;;;;;20.33;12.47;;;;;;;17.27;62.46;95502.75;5055161;28;20440;-76
2022/10/31 08:00:28;;;;;;;15.30;10.00;;;;;;;17.31;62.36;95506.75;5073817;28;20861;-76
2022/10/31 08:03:00;;;;;;;18.47;11.73;;;;;;;17.28;62.47;95505.25;5073746;28;20492;-76
2022/10/31 08:05:28;;;;;;;25.37;11.60;;;;;;;17.27;62.40;95503.56;5073755;28;20470;-76
2022/10/31 08:07:55;;;;;;;29.47;13.60;;;;;;;17.30;62.74;95505.09;5073924;28;20447;-76
2022/10/31 08:10:21;;;;;;;19.70;12.27;;;;;;;17.28;62.88;95505.25;5074104;28;20817;-76
2022/10/31 08:12:55;;;;;;;15.20;11.17;;;;;;;17.43;62.69;95502.03;5073813;28;20504;-76
2022/10/31 08:15:22;;;;;;;17.97;12.03;;;;;;;17.61;62.70;95502.78;5073541;28;20451;-76
2022/10/31 08:17:48;;;;;;;27.53;12.07;;;;;;;17.83;61.76;95496.94;5073705;28;21199;-76
2022/10/31 08:20:17;;;;;;;22.90;12.30;;;;;;;18.05;61.52;95505.34;5073365;28;20440;-76
2022/10/31 08:22:43;;;;;;;20.87;11.93;;;;;;;18.13;60.48;95503.53;5054490;28;20540;-76
2022/10/31 08:25:10;;;;;;;23.50;13.00;;;;;;;18.32;60.33;95506.91;5073636;28;20458;-76
2022/10/31 08:27:38;;;;;;;22.60;12.87;;;;;;;18.44;60.75;95498.47;5054566;28;20448;-76
2022/10/31 08:30:07;;;;;;;23.47;13.80;;;;;;;18.56;59.17;95510.47;5038285;28;20441;-76
2022/10/31 08:32:33;;;;;;;19.17;12.47;;;;;;;18.65;58.73;95502.50;5073377;28;20456;-76
2022/10/31 08:35:00;;;;;;;22.30;14.87;;;;;;;18.78;58.51;95501.00;5073324;28;20495;-76
2022/10/31 08:37:28;;;;;;;21.37;13.93;;;;;;;19.01;57.90;95497.69;5073495;28;20449;-76
2022/10/31 08:39:55;;;;;;;24.13;14.50;;;;;;;19.21;57.44;95498.19;5073228;28;20494;-76
2022/10/31 08:42:42;;;;;;;20.60;14.47;;;;;;;19.45;57.06;95498.16;5073017;28;20480;-77
2022/10/31 08:45:09;;;;;;;22.93;13.30;;;;;;;19.71;56.55;95485.47;5073188;28;20494;-77
2022/10/31 08:47:36;;;;;;;22.40;14.27;;;;;;;19.88;55.61;95483.56;5039238;28;20444;-76
2022/10/31 08:50:02;;;;;;;23.40;14.63;;;;;;;20.02;55.58;95495.34;5073099;28;20448;-76
2022/10/31 08:52:31;;;;;;;18.70;15.67;;;;;;;20.03;54.80;95494.34;5072779;28;20474;-76
2022/10/31 08:54:57;;;;;;;22.37;14.37;;;;;;;20.18;54.55;95489.09;5072683;28;20468;-77
2022/10/31 08:57:24;;;;;;;21.83;16.47;;;;;;;20.27;54.29;95483.56;5072591;28;20846;-76
2022/10/31 08:59:51;;;;;;;18.57;13.40;;;;;;;20.27;54.06;95486.25;5072930;28;20436;-77
2022/10/31 09:02:18;;;;;;;21.20;12.60;;;;;;;20.30;53.80;95488.56;5072548;28;20831;-76
2022/10/31 09:04:45;;;;;;;22.03;12.90;;;;;;;20.39;54.50;95476.84;5072529;28;20997;-76
2022/10/31 09:07:11;;;;;;;17.90;13.60;;;;;;;20.42;53.93;95479.16;5072522;28;20814;-76
2022/10/31 09:09:39;;;;;;;16.93;13.73;;;;;;;20.27;53.80;95480.09;5072312;28;20833;-76
2022/10/31 09:12:06;;;;;;;18.73;14.07;;;;;;;20.29;53.79;95484.22;5072403;28;20456;-76
2022/10/31 09:14:33;;;;;;;17.90;13.30;;;;;;;20.36;53.48;95487.03;5072222;28;20939;-76
2022/10/31 09:17:00;;;;;;;19.60;13.73;;;;;;;20.38;53.62;95479.66;5072440;28;20942;-76
2022/10/31 09:19:26;;;;;;;27.40;13.43;;;;;;;20.47;53.65;95483.97;5072525;28;20818;-76
2022/10/31 09:21:54;;;;;;;22.07;12.00;;;;;;;20.61;53.58;95480.56;5072355;28;20891;-76
2022/10/31 09:24:21;;;;;;;17.03;12.83;;;;;;;20.70;52.95;95479.47;5072416;28;20528;-76
2022/10/31 09:26:49;;;;;;;18.03;12.20;;;;;;;20.84;52.36;95474.41;5072557;28;21009;-76
2022/10/31 09:29:16;;;;;;;19.67;12.80;;;;;;;20.93;52.32;95474.16;5072413;28;20444;-76
2022/10/31 09:31:43;;;;;;;17.70;12.73;;;;;;;21.02;52.11;95472.22;5072618;28;20509;-76
2022/10/31 09:34:10;;;;;;;16.53;11.40;;;;;;;21.08;51.65;95481.34;5072396;28;20502;-76
2022/10/31 09:36:37;;;;;;;18.70;11.50;;;;;;;21.20;52.02;95471.91;5072172;28;20456;-76
2022/10/31 09:39:04;;;;;;;17.63;12.10;;;;;;;21.32;51.37;95478.50;5071945;28;20480;-76
2022/10/31 09:41:43;;;;;;;18.43;11.23;;;;;;;21.40;51.04;95472.25;5072315;28;20489;-76
2022/10/31 09:44:25;;;;;;;17.17;11.83;;;;;;;21.41;50.54;95476.59;5072168;28;20449;-76
2022/10/31 09:47:00;;;;;;;19.10;12.47;;;;;;;21.42;50.85;95467.56;5072318;28;20771;-76
2022/10/31 09:49:41;;;;;;;19.53;12.23;;;;;;;21.46;50.83;95469.69;5071843;28;20494;-77
2022/10/31 09:52:15;;;;;;;25.27;12.07;;;;;;;21.43;50.10;95467.38;5071960;28;20484;-76
2022/10/31 09:54:50;;;;;;;23.00;11.70;;;;;;;21.51;50.12;95471.81;5072031;28;20437;-76
2022/10/31 09:57:20;;;;;;;26.40;13.63;;;;;;;21.52;50.41;95468.94;5072285;28;20443;-76
2022/10/31 09:59:50;;;;;;;23.80;12.37;;;;;;;21.49;50.05;95463.16;5072154;28;20433;-76
2022/10/31 10:02:23;;;;;;;23.70;12.67;;;;;;;21.50;50.67;95459.47;5072212;28;20484;-76
2022/10/31 10:04:56;;;;;;;21.23;12.63;;;;;;;21.58;50.42;95462.03;5071818;28;20455;-76
2022/10/31 10:07:31;;;;;;;20.20;11.53;;;;;;;21.59;50.15;95456.50;5071896;28;20843;-76
2022/10/31 10:09:58;;;;;;;13.53;9.83;;;;;;;21.63;50.11;95447.13;5071733;28;20436;-76
2022/10/31 10:12:41;;;;;;;16.97;11.60;;;;;;;21.70;50.25;95447.22;5071711;28;20483;-76
2022/10/31 10:15:28;;;;;;;19.20;10.03;;;;;;;21.76;49.31;95443.81;5071784;28;20436;-77
2022/10/31 10:18:04;;;;;;;12.80;9.40;;;;;;;21.77;49.47;95444.63;5071600;28;20941;-76
2022/10/31 10:20:36;;;;;;;24.73;11.83;;;;;;;21.81;49.50;95440.56;5071917;28;20498;-76
2022/10/31 10:23:29;;;;;;;17.90;10.20;;;;;;;21.86;49.70;95439.00;5072023;28;20492;-76
2022/10/31 10:26:02;;;;;;;24.33;11.63;;;;;;;21.91;50.16;95436.59;5071654;28;20440;-76
2022/10/31 10:28:38;;;;;;;21.90;10.93;;;;;;;21.99;50.22;95432.19;5053322;28;20552;-76
2022/10/31 10:31:10;;;;;;;20.30;10.30;;;;;;;21.99;49.12;95432.19;5071731;28;20472;-76
2022/10/31 10:33:41;;;;;;;19.00;10.80;;;;;;;21.97;48.84;95432.34;5036144;28;20830;-76
2022/10/31 10:36:13;;;;;;;11.67;10.10;;;;;;;22.03;49.46;95434.28;5071500;28;20977;-76
2022/10/31 10:38:49;;;;;;;18.80;9.20;;;;;;;22.08;48.34;95426.56;5071938;28;20441;-77
2022/10/31 10:41:19;;;;;;;6.50;4.67;;;;;;;22.04;46.99;95419.94;5071503;28;20451;-76
2022/10/31 10:43:46;;;;;;;7.30;5.57;;;;;;;22.04;46.98;95403.06;5071321;28;20550;-76
2022/10/31 10:49:18;;;;;;;11.30;5.27;;;;;;;21.84;48.40;95397.44;5071676;28;20815;-76
2022/10/31 10:51:47;;;;;;;12.30;5.27;;;;;;;21.78;48.12;95403.56;5071500;28;20492;-76
2022/10/31 10:54:40;;;;;;;12.60;6.70;;;;;;;21.62;48.72;95407.22;5071525;28;20472;-76
2022/10/31 10:57:18;;;;;;;12.10;7.17;;;;;;;21.48;49.11;95403.56;5071502;28;20495;-76
2022/10/31 10:59:46;;;;;;;6.47;5.43;;;;;;;21.43;49.09;95405.16;5071382;28;20554;-76
2022/10/31 11:02:18;;;;;;;9.47;4.87;;;;;;;21.37;49.21;95403.19;5071410;28;20489;-76
2022/10/31 11:04:48;;;;;;;12.70;6.07;;;;;;;21.30;50.10;95405.75;5071426;28;20444;-77
2022/10/31 11:07:15;;;;;;;12.40;5.30;;;;;;;21.24;50.07;95401.16;5071413;28;20453;-76
2022/10/31 11:09:42;;;;;;;16.07;6.57;;;;;;;21.16;50.10;95395.88;5071807;28;20449;-76
2022/10/31 11:12:10;;;;;;;15.70;5.93;;;;;;;21.14;50.63;95392.56;5071357;28;20440;-76
2022/10/31 11:14:45;;;;;;;16.03;7.10;;;;;;;21.15;50.96;95391.56;5071434;28;20535;-76
2022/10/31 11:17:26;;;;;;;8.20;5.37;;;;;;;21.18;50.10;95392.03;5072545;28;20971;-76
2022/10/31 11:20:05;;;;;;;13.97;6.97;;;;;;;21.21;50.08;95394.31;5074542;28;20452;-76
2022/10/31 11:22:32;;;;;;;12.70;5.50;;;;;;;21.26;50.09;95375.13;5074411;28;20495;-76
2022/10/31 11:24:59;;;;;;;9.73;6.10;;;;;;;21.38;50.82;95376.31;5074533;28;20441;-76
2022/10/31 11:27:27;;;;;;;9.83;5.83;;;;;;;21.45;49.93;95365.72;5074243;28;20444;-76
2022/10/31 11:30:06;;;;;;;8.90;5.47;;;;;;;21.50;49.26;95364.16;5074304;28;20966;-76
2022/10/31 11:32:34;;;;;;;7.10;3.93;;;;;;;21.63;49.18;95363.47;5074602;28;20528;-76
2022/10/31 11:35:09;;;;;;;7.70;4.67;;;;;;;21.72;49.33;95362.38;5074293;28;20453;-76
2022/10/31 11:37:43;;;;;;;11.40;6.33;;;;;;;21.85;48.22;95356.34;5074182;28;20535;-76
2022/10/31 11:40:18;;;;;;;5.40;3.70;;;;;;;21.96;47.29;95350.50;5074151;28;20932;-76